sensor_id;sensor_type;location;lat;lon;timestamp;P1;durP1;ratioP1;P2;durP2;ratioP2
26474;SDS011;14161;52.270;10.334;2022-08-16T00:00:34;6.20;;;4.53;;
26474;SDS011;14161;52.270;10.334;2022-08-16T00:03:01;4.95;;;4.45;;
26474;SDS011;14161;52.270;10.334;2022-08-16T00:05:28;7.00;;;5.00;;
26474;SDS011;14161;52.270;10.334;2022-08-16T00:07:56;5.90;;;5.28;;
26474;SDS011;14161;52.270;10.334;2022-08-16T00:10:23;4.85;;;4.45;;
26474;SDS011;14161;52.270;10.334;2022-08-16T00:12:50;5.63;;;4.90;;
26474;SDS011;14161;52.270;10.334;2022-08-16T00:15:18;5.13;;;4.63;;
26474;SDS011;14161;52.270;10.334;2022-08-16T00:17:46;5.60;;;5.07;;
26474;SDS011;14161;52.270;10.334;2022-08-16T00:20:12;8.38;;;4.75;;
26474;SDS011;14161;52.270;10.334;2022-08-16T00:22:38;5.70;;;4.85;;
26474;SDS011;14161;52.270;10.334;2022-08-16T00:25:06;6.13;;;5.53;;
26474;SDS011;14161;52.270;10.334;2022-08-16T00:27:33;5.45;;;4.95;;
26474;SDS011;14161;52.270;10.334;2022-08-16T00:29:58;6.15;;;5.55;;
26474;SDS011;14161;52.270;10.334;2022-08-16T00:32:24;7.15;;;5.50;;
26474;SDS011;14161;52.270;10.334;2022-08-16T00:34:50;7.68;;;5.57;;
26474;SDS011;14161;52.270;10.334;2022-08-16T00:37:15;5.97;;;5.38;;
26474;SDS011;14161;52.270;10.334;2022-08-16T00:39:41;5.30;;;4.80;;
26474;SDS011;14161;52.270;10.334;2022-08-16T00:42:06;6.50;;;5.45;;
26474;SDS011;14161;52.270;10.334;2022-08-16T00:44:32;5.10;;;4.60;;
26474;SDS011;14161;52.270;10.334;2022-08-16T00:47:04;5.70;;;4.65;;
26474;SDS011;14161;52.270;10.334;2022-08-16T00:49:33;6.88;;;5.00;;
26474;SDS011;14161;52.270;10.334;2022-08-16T00:51:59;5.88;;;5.20;;
26474;SDS011;14161;52.270;10.334;2022-08-16T00:54:25;5.40;;;4.63;;
26474;SDS011;14161;52.270;10.334;2022-08-16T00:56:52;4.95;;;4.50;;
26474;SDS011;14161;52.270;10.334;2022-08-16T00:59:20;6.28;;;5.13;;
26474;SDS011;14161;52.270;10.334;2022-08-16T01:01:46;4.72;;;4.25;;
26474;SDS011;14161;52.270;10.334;2022-08-16T01:04:12;6.05;;;4.82;;
26474;SDS011;14161;52.270;10.334;2022-08-16T01:06:40;4.88;;;4.22;;
26474;SDS011;14161;52.270;10.334;2022-08-16T01:09:05;5.78;;;4.65;;
26474;SDS011;14161;52.270;10.334;2022-08-16T01:11:33;8.13;;;5.15;;
26474;SDS011;14161;52.270;10.334;2022-08-16T01:14:02;4.85;;;4.43;;
26474;SDS011;14161;52.270;10.334;2022-08-16T01:16:49;6.50;;;4.53;;
26474;SDS011;14161;52.270;10.334;2022-08-16T01:19:20;5.05;;;4.55;;
26474;SDS011;14161;52.270;10.334;2022-08-16T01:21:52;4.95;;;4.00;;
26474;SDS011;14161;52.270;10.334;2022-08-16T01:27:02;4.78;;;4.38;;
26474;SDS011;14161;52.270;10.334;2022-08-16T01:29:34;4.93;;;4.43;;
26474;SDS011;14161;52.270;10.334;2022-08-16T01:32:02;5.72;;;4.32;;
26474;SDS011;14161;52.270;10.334;2022-08-16T01:34:28;8.25;;;4.97;;
26474;SDS011;14161;52.270;10.334;2022-08-16T01:37:06;6.63;;;4.45;;
26474;SDS011;14161;52.270;10.334;2022-08-16T01:39:34;5.53;;;4.80;;
26474;SDS011;14161;52.270;10.334;2022-08-16T01:42:00;5.75;;;4.68;;
26474;SDS011;14161;52.270;10.334;2022-08-16T01:44:27;7.90;;;5.00;;
26474;SDS011;14161;52.270;10.334;2022-08-16T01:46:52;5.95;;;4.85;;
26474;SDS011;14161;52.270;10.334;2022-08-16T01:49:34;6.18;;;4.68;;
26474;SDS011;14161;52.270;10.334;2022-08-16T01:52:10;5.03;;;4.43;;
26474;SDS011;14161;52.270;10.334;2022-08-16T01:54:52;5.13;;;4.40;;
26474;SDS011;14161;52.270;10.334;2022-08-16T01:57:18;7.15;;;5.30;;
26474;SDS011;14161;52.270;10.334;2022-08-16T01:59:43;5.15;;;4.65;;
26474;SDS011;14161;52.270;10.334;2022-08-16T02:02:13;11.20;;;5.72;;
26474;SDS011;14161;52.270;10.334;2022-08-16T02:04:39;5.47;;;4.47;;
26474;SDS011;14161;52.270;10.334;2022-08-16T02:07:05;6.53;;;4.68;;
26474;SDS011;14161;52.270;10.334;2022-08-16T02:09:35;5.65;;;5.05;;
26474;SDS011;14161;52.270;10.334;2022-08-16T02:12:03;5.88;;;4.72;;
26474;SDS011;14161;52.270;10.334;2022-08-16T02:14:30;5.45;;;4.65;;
26474;SDS011;14161;52.270;10.334;2022-08-16T02:16:57;9.20;;;5.20;;
26474;SDS011;14161;52.270;10.334;2022-08-16T02:19:26;4.90;;;4.38;;
26474;SDS011;14161;52.270;10.334;2022-08-16T02:21:53;7.43;;;4.53;;
26474;SDS011;14161;52.270;10.334;2022-08-16T02:24:20;5.97;;;4.45;;
26474;SDS011;14161;52.270;10.334;2022-08-16T02:26:47;5.05;;;4.55;;
26474;SDS011;14161;52.270;10.334;2022-08-16T02:29:13;6.55;;;4.13;;
26474;SDS011;14161;52.270;10.334;2022-08-16T02:31:39;7.13;;;4.20;;
26474;SDS011;14161;52.270;10.334;2022-08-16T02:34:05;6.32;;;4.63;;
26474;SDS011;14161;52.270;10.334;2022-08-16T02:36:36;5.57;;;4.28;;
26474;SDS011;14161;52.270;10.334;2022-08-16T02:39:03;5.43;;;4.07;;
26474;SDS011;14161;52.270;10.334;2022-08-16T02:41:29;7.40;;;3.72;;
26474;SDS011;14161;52.270;10.334;2022-08-16T02:43:55;4.78;;;4.03;;
26474;SDS011;14161;52.270;10.334;2022-08-16T02:46:21;6.00;;;4.13;;
26474;SDS011;14161;52.270;10.334;2022-08-16T02:48:48;6.68;;;4.43;;
26474;SDS011;14161;52.270;10.334;2022-08-16T02:51:14;6.97;;;4.28;;
26474;SDS011;14161;52.270;10.334;2022-08-16T02:53:41;6.55;;;4.20;;
26474;SDS011;14161;52.270;10.334;2022-08-16T02:56:08;6.63;;;3.90;;
26474;SDS011;14161;52.270;10.334;2022-08-16T02:58:35;5.68;;;4.00;;
26474;SDS011;14161;52.270;10.334;2022-08-16T03:01:01;5.00;;;4.50;;
26474;SDS011;14161;52.270;10.334;2022-08-16T03:03:27;5.45;;;4.15;;
26474;SDS011;14161;52.270;10.334;2022-08-16T03:05:53;9.20;;;4.13;;
26474;SDS011;14161;52.270;10.334;2022-08-16T03:08:20;4.90;;;4.25;;
26474;SDS011;14161;52.270;10.334;2022-08-16T03:10:47;4.88;;;4.18;;
26474;SDS011;14161;52.270;10.334;2022-08-16T03:13:15;6.28;;;4.25;;
26474;SDS011;14161;52.270;10.334;2022-08-16T03:15:42;6.35;;;4.90;;
26474;SDS011;14161;52.270;10.334;2022-08-16T03:18:09;4.93;;;4.03;;
26474;SDS011;14161;52.270;10.334;2022-08-16T03:20:35;6.10;;;4.05;;
26474;SDS011;14161;52.270;10.334;2022-08-16T03:23:02;4.78;;;3.75;;
26474;SDS011;14161;52.270;10.334;2022-08-16T03:25:28;4.50;;;3.83;;
26474;SDS011;14161;52.270;10.334;2022-08-16T03:27:59;4.30;;;3.90;;
26474;SDS011;14161;52.270;10.334;2022-08-16T03:30:27;5.43;;;3.63;;
26474;SDS011;14161;52.270;10.334;2022-08-16T03:32:58;4.50;;;4.10;;
26474;SDS011;14161;52.270;10.334;2022-08-16T03:35:29;5.72;;;4.28;;
26474;SDS011;14161;52.270;10.334;2022-08-16T03:37:58;6.18;;;4.57;;
26474;SDS011;14161;52.270;10.334;2022-08-16T03:40:27;4.95;;;4.32;;
26474;SDS011;14161;52.270;10.334;2022-08-16T03:42:53;7.95;;;4.63;;
26474;SDS011;14161;52.270;10.334;2022-08-16T03:45:19;4.63;;;4.13;;
26474;SDS011;14161;52.270;10.334;2022-08-16T03:47:45;4.97;;;4.47;;
26474;SDS011;14161;52.270;10.334;2022-08-16T03:50:12;4.47;;;4.03;;
26474;SDS011;14161;52.270;10.334;2022-08-16T03:52:39;5.68;;;4.35;;
26474;SDS011;14161;52.270;10.334;2022-08-16T03:55:08;6.68;;;4.47;;
26474;SDS011;14161;52.270;10.334;2022-08-16T03:57:34;6.28;;;3.95;;
26474;SDS011;14161;52.270;10.334;2022-08-16T04:00:00;7.63;;;4.10;;
26474;SDS011;14161;52.270;10.334;2022-08-16T04:02:39;6.47;;;4.40;;
26474;SDS011;14161;52.270;10.334;2022-08-16T04:05:09;4.68;;;3.90;;
26474;SDS011;14161;52.270;10.334;2022-08-16T04:07:36;7.43;;;4.40;;
26474;SDS011;14161;52.270;10.334;2022-08-16T04:10:03;5.82;;;4.55;;
26474;SDS011;14161;52.270;10.334;2022-08-16T04:12:29;5.30;;;4.38;;
26474;SDS011;14161;52.270;10.334;2022-08-16T04:14:55;5.63;;;4.20;;
26474;SDS011;14161;52.270;10.334;2022-08-16T04:17:21;5.85;;;4.28;;
26474;SDS011;14161;52.270;10.334;2022-08-16T04:19:47;6.13;;;4.28;;
26474;SDS011;14161;52.270;10.334;2022-08-16T04:22:14;6.40;;;4.15;;
26474;SDS011;14161;52.270;10.334;2022-08-16T04:24:47;4.90;;;4.30;;
26474;SDS011;14161;52.270;10.334;2022-08-16T04:27:12;6.00;;;4.20;;
26474;SDS011;14161;52.270;10.334;2022-08-16T04:29:38;5.30;;;3.85;;
26474;SDS011;14161;52.270;10.334;2022-08-16T04:32:04;4.68;;;4.15;;
26474;SDS011;14161;52.270;10.334;2022-08-16T04:34:33;4.75;;;3.92;;
26474;SDS011;14161;52.270;10.334;2022-08-16T04:37:00;5.40;;;3.72;;
26474;SDS011;14161;52.270;10.334;2022-08-16T04:39:26;10.10;;;3.83;;
26474;SDS011;14161;52.270;10.334;2022-08-16T04:41:53;3.80;;;3.08;;
26474;SDS011;14161;52.270;10.334;2022-08-16T04:44:18;7.28;;;4.13;;
26474;SDS011;14161;52.270;10.334;2022-08-16T04:46:44;6.28;;;4.20;;
26474;SDS011;14161;52.270;10.334;2022-08-16T04:49:10;6.10;;;3.83;;
26474;SDS011;14161;52.270;10.334;2022-08-16T04:51:36;4.60;;;4.13;;
26474;SDS011;14161;52.270;10.334;2022-08-16T04:54:04;4.18;;;3.78;;
26474;SDS011;14161;52.270;10.334;2022-08-16T04:56:31;4.05;;;3.50;;
26474;SDS011;14161;52.270;10.334;2022-08-16T04:58:56;4.30;;;3.90;;
26474;SDS011;14161;52.270;10.334;2022-08-16T05:01:22;6.53;;;4.10;;
26474;SDS011;14161;52.270;10.334;2022-08-16T05:03:47;5.88;;;4.30;;
26474;SDS011;14161;52.270;10.334;2022-08-16T05:06:13;6.75;;;4.03;;
26474;SDS011;14161;52.270;10.334;2022-08-16T05:08:39;5.13;;;4.40;;
26474;SDS011;14161;52.270;10.334;2022-08-16T05:11:13;5.85;;;4.22;;
26474;SDS011;14161;52.270;10.334;2022-08-16T05:13:44;7.05;;;4.70;;
26474;SDS011;14161;52.270;10.334;2022-08-16T05:16:18;4.72;;;3.83;;
26474;SDS011;14161;52.270;10.334;2022-08-16T05:18:50;5.78;;;3.95;;
26474;SDS011;14161;52.270;10.334;2022-08-16T05:21:16;4.55;;;3.95;;
26474;SDS011;14161;52.270;10.334;2022-08-16T05:23:46;7.70;;;3.92;;
26474;SDS011;14161;52.270;10.334;2022-08-16T05:26:15;4.20;;;3.70;;
26474;SDS011;14161;52.270;10.334;2022-08-16T05:28:41;10.32;;;4.32;;
26474;SDS011;14161;52.270;10.334;2022-08-16T05:31:07;4.45;;;3.53;;
26474;SDS011;14161;52.270;10.334;2022-08-16T05:33:43;3.70;;;3.40;;
26474;SDS011;14161;52.270;10.334;2022-08-16T05:36:09;5.28;;;3.92;;
26474;SDS011;14161;52.270;10.334;2022-08-16T05:38:41;5.40;;;3.70;;
26474;SDS011;14161;52.270;10.334;2022-08-16T05:41:13;5.30;;;3.78;;
26474;SDS011;14161;52.270;10.334;2022-08-16T05:43:44;4.23;;;3.83;;
26474;SDS011;14161;52.270;10.334;2022-08-16T05:46:23;5.13;;;3.92;;
26474;SDS011;14161;52.270;10.334;2022-08-16T05:48:48;4.05;;;3.58;;
26474;SDS011;14161;52.270;10.334;2022-08-16T05:51:22;4.35;;;3.70;;
26474;SDS011;14161;52.270;10.334;2022-08-16T05:53:49;8.18;;;3.72;;
26474;SDS011;14161;52.270;10.334;2022-08-16T05:56:16;6.57;;;3.83;;
26474;SDS011;14161;52.270;10.334;2022-08-16T05:58:47;3.88;;;3.42;;
26474;SDS011;14161;52.270;10.334;2022-08-16T06:01:35;3.70;;;3.40;;
26474;SDS011;14161;52.270;10.334;2022-08-16T06:04:05;6.20;;;3.97;;
26474;SDS011;14161;52.270;10.334;2022-08-16T06:06:39;3.83;;;3.25;;
26474;SDS011;14161;52.270;10.334;2022-08-16T06:09:16;4.93;;;3.65;;
26474;SDS011;14161;52.270;10.334;2022-08-16T06:11:57;4.20;;;3.80;;
26474;SDS011;14161;52.270;10.334;2022-08-16T06:14:46;8.75;;;3.70;;
26474;SDS011;14161;52.270;10.334;2022-08-16T06:17:28;3.88;;;3.45;;
26474;SDS011;14161;52.270;10.334;2022-08-16T06:20:02;8.02;;;3.47;;
26474;SDS011;14161;52.270;10.334;2022-08-16T06:23:01;3.80;;;3.05;;
26474;SDS011;14161;52.270;10.334;2022-08-16T06:25:52;4.77;;;3.40;;
26474;SDS011;14161;52.270;10.334;2022-08-16T06:28:18;4.88;;;3.88;;
26474;SDS011;14161;52.270;10.334;2022-08-16T06:30:54;4.15;;;3.03;;
26474;SDS011;14161;52.270;10.334;2022-08-16T06:33:20;3.63;;;2.80;;
26474;SDS011;14161;52.270;10.334;2022-08-16T06:35:50;4.38;;;3.20;;
26474;SDS011;14161;52.270;10.334;2022-08-16T06:38:20;4.85;;;3.28;;
26474;SDS011;14161;52.270;10.334;2022-08-16T06:40:50;6.43;;;3.20;;
26474;SDS011;14161;52.270;10.334;2022-08-16T06:43:28;4.95;;;3.50;;
26474;SDS011;14161;52.270;10.334;2022-08-16T06:46:05;5.40;;;3.25;;
26474;SDS011;14161;52.270;10.334;2022-08-16T06:51:23;5.05;;;3.40;;
26474;SDS011;14161;52.270;10.334;2022-08-16T06:53:49;3.78;;;3.33;;
26474;SDS011;14161;52.270;10.334;2022-08-16T06:56:14;3.05;;;2.80;;
26474;SDS011;14161;52.270;10.334;2022-08-16T06:58:52;3.92;;;3.35;;
26474;SDS011;14161;52.270;10.334;2022-08-16T07:01:22;4.40;;;3.05;;
26474;SDS011;14161;52.270;10.334;2022-08-16T07:03:49;5.35;;;3.03;;
26474;SDS011;14161;52.270;10.334;2022-08-16T07:06:15;5.55;;;3.05;;
26474;SDS011;14161;52.270;10.334;2022-08-16T07:08:44;5.70;;;2.85;;
26474;SDS011;14161;52.270;10.334;2022-08-16T07:11:11;3.08;;;2.78;;
26474;SDS011;14161;52.270;10.334;2022-08-16T07:13:37;4.43;;;3.40;;
26474;SDS011;14161;52.270;10.334;2022-08-16T07:16:04;5.82;;;4.05;;
26474;SDS011;14161;52.270;10.334;2022-08-16T07:18:33;4.15;;;3.13;;
26474;SDS011;14161;52.270;10.334;2022-08-16T07:21:00;4.05;;;2.97;;
26474;SDS011;14161;52.270;10.334;2022-08-16T07:23:25;5.85;;;3.05;;
26474;SDS011;14161;52.270;10.334;2022-08-16T07:26:17;4.97;;;3.40;;
26474;SDS011;14161;52.270;10.334;2022-08-16T07:29:17;7.10;;;2.97;;
26474;SDS011;14161;52.270;10.334;2022-08-16T07:32:05;3.25;;;2.85;;
26474;SDS011;14161;52.270;10.334;2022-08-16T07:34:58;3.28;;;2.97;;
26474;SDS011;14161;52.270;10.334;2022-08-16T07:38:11;3.75;;;3.42;;
26474;SDS011;14161;52.270;10.334;2022-08-16T07:41:05;5.25;;;3.25;;
26474;SDS011;14161;52.270;10.334;2022-08-16T07:43:57;3.92;;;3.00;;
26474;SDS011;14161;52.270;10.334;2022-08-16T07:47:14;3.33;;;2.95;;
26474;SDS011;14161;52.270;10.334;2022-08-16T07:50:06;3.00;;;2.67;;
26474;SDS011;14161;52.270;10.334;2022-08-16T07:53:11;3.22;;;2.60;;
26474;SDS011;14161;52.270;10.334;2022-08-16T07:55:58;4.07;;;2.90;;
26474;SDS011;14161;52.270;10.334;2022-08-16T07:58:48;4.07;;;2.83;;
26474;SDS011;14161;52.270;10.334;2022-08-16T08:02:12;6.13;;;3.10;;
26474;SDS011;14161;52.270;10.334;2022-08-16T08:05:31;5.93;;;2.85;;
26474;SDS011;14161;52.270;10.334;2022-08-16T08:09:15;3.83;;;2.10;;
26474;SDS011;14161;52.270;10.334;2022-08-16T08:12:27;2.92;;;2.63;;
26474;SDS011;14161;52.270;10.334;2022-08-16T08:18:43;3.20;;;2.47;;
26474;SDS011;14161;52.270;10.334;2022-08-16T08:21:31;2.78;;;2.28;;
26474;SDS011;14161;52.270;10.334;2022-08-16T08:25:14;5.20;;;2.97;;
26474;SDS011;14161;52.270;10.334;2022-08-16T08:28:01;4.95;;;2.72;;
26474;SDS011;14161;52.270;10.334;2022-08-16T08:41:23;2.30;;;2.10;;
26474;SDS011;14161;52.270;10.334;2022-08-16T08:44:47;1.98;;;1.77;;
26474;SDS011;14161;52.270;10.334;2022-08-16T09:25:03;2.08;;;1.85;;
26474;SDS011;14161;52.270;10.334;2022-08-16T09:31:41;2.10;;;1.83;;
26474;SDS011;14161;52.270;10.334;2022-08-16T11:10:03;2.65;;;2.30;;
26474;SDS011;14161;52.270;10.334;2022-08-16T11:12:28;3.80;;;2.22;;
26474;SDS011;14161;52.270;10.334;2022-08-16T11:14:54;3.72;;;2.50;;
26474;SDS011;14161;52.270;10.334;2022-08-16T11:17:19;4.22;;;2.60;;
26474;SDS011;14161;52.270;10.334;2022-08-16T11:19:45;4.65;;;2.47;;
26474;SDS011;14161;52.270;10.334;2022-08-16T11:22:11;3.45;;;2.15;;
26474;SDS011;14161;52.270;10.334;2022-08-16T11:24:38;6.63;;;3.03;;
26474;SDS011;14161;52.270;10.334;2022-08-16T11:27:09;3.38;;;2.92;;
26474;SDS011;14161;52.270;10.334;2022-08-16T11:29:36;3.42;;;2.63;;
26474;SDS011;14161;52.270;10.334;2022-08-16T11:32:02;2.78;;;2.25;;
26474;SDS011;14161;52.270;10.334;2022-08-16T11:34:30;2.40;;;2.20;;
26474;SDS011;14161;52.270;10.334;2022-08-16T11:36:56;2.45;;;2.20;;
26474;SDS011;14161;52.270;10.334;2022-08-16T11:39:22;6.85;;;2.70;;
26474;SDS011;14161;52.270;10.334;2022-08-16T11:41:47;3.00;;;2.33;;
26474;SDS011;14161;52.270;10.334;2022-08-16T11:44:13;3.92;;;2.40;;
26474;SDS011;14161;52.270;10.334;2022-08-16T11:46:38;2.80;;;2.50;;
26474;SDS011;14161;52.270;10.334;2022-08-16T11:49:04;2.40;;;2.20;;
26474;SDS011;14161;52.270;10.334;2022-08-16T11:51:30;5.80;;;2.47;;
26474;SDS011;14161;52.270;10.334;2022-08-16T11:53:55;3.88;;;2.63;;
26474;SDS011;14161;52.270;10.334;2022-08-16T11:56:21;3.25;;;2.40;;
26474;SDS011;14161;52.270;10.334;2022-08-16T11:58:47;6.90;;;2.47;;
26474;SDS011;14161;52.270;10.334;2022-08-16T12:01:12;5.07;;;2.53;;
26474;SDS011;14161;52.270;10.334;2022-08-16T12:03:39;2.58;;;2.08;;
26474;SDS011;14161;52.270;10.334;2022-08-16T12:06:11;2.45;;;2.20;;
26474;SDS011;14161;52.270;10.334;2022-08-16T12:08:41;5.75;;;2.53;;
26474;SDS011;14161;52.270;10.334;2022-08-16T12:11:08;5.70;;;2.33;;
26474;SDS011;14161;52.270;10.334;2022-08-16T12:13:35;3.30;;;2.28;;
26474;SDS011;14161;52.270;10.334;2022-08-16T12:16:00;2.92;;;2.05;;
26474;SDS011;14161;52.270;10.334;2022-08-16T12:18:26;2.78;;;2.30;;
26474;SDS011;14161;52.270;10.334;2022-08-16T12:20:51;5.55;;;2.72;;
26474;SDS011;14161;52.270;10.334;2022-08-16T12:23:17;4.45;;;2.47;;
26474;SDS011;14161;52.270;10.334;2022-08-16T12:25:43;4.57;;;2.35;;
26474;SDS011;14161;52.270;10.334;2022-08-16T12:28:08;2.70;;;2.30;;
26474;SDS011;14161;52.270;10.334;2022-08-16T12:30:35;3.60;;;2.30;;
26474;SDS011;14161;52.270;10.334;2022-08-16T12:33:03;4.80;;;2.28;;
26474;SDS011;14161;52.270;10.334;2022-08-16T12:35:31;2.20;;;2.00;;
26474;SDS011;14161;52.270;10.334;2022-08-16T12:37:58;5.65;;;2.80;;
26474;SDS011;14161;52.270;10.334;2022-08-16T12:40:24;3.00;;;2.30;;
26474;SDS011;14161;52.270;10.334;2022-08-16T12:42:53;3.15;;;2.47;;
26474;SDS011;14161;52.270;10.334;2022-08-16T12:45:20;6.75;;;2.83;;
26474;SDS011;14161;52.270;10.334;2022-08-16T12:47:47;4.40;;;2.47;;
26474;SDS011;14161;52.270;10.334;2022-08-16T12:50:31;3.92;;;2.70;;
26474;SDS011;14161;52.270;10.334;2022-08-16T12:52:57;3.03;;;2.50;;
26474;SDS011;14161;52.270;10.334;2022-08-16T12:55:22;4.93;;;2.05;;
26474;SDS011;14161;52.270;10.334;2022-08-16T12:57:54;3.08;;;1.92;;
26474;SDS011;14161;52.270;10.334;2022-08-16T13:00:21;4.55;;;2.38;;
26474;SDS011;14161;52.270;10.334;2022-08-16T13:02:47;7.15;;;2.15;;
26474;SDS011;14161;52.270;10.334;2022-08-16T13:05:13;2.55;;;2.22;;
26474;SDS011;14161;52.270;10.334;2022-08-16T13:07:39;3.65;;;2.40;;
26474;SDS011;14161;52.270;10.334;2022-08-16T13:10:06;3.33;;;2.17;;
26474;SDS011;14161;52.270;10.334;2022-08-16T13:12:38;2.33;;;2.00;;
26474;SDS011;14161;52.270;10.334;2022-08-16T13:15:06;3.13;;;2.10;;
26474;SDS011;14161;52.270;10.334;2022-08-16T13:17:40;3.58;;;2.10;;
26474;SDS011;14161;52.270;10.334;2022-08-16T13:20:23;4.30;;;2.28;;
26474;SDS011;14161;52.270;10.334;2022-08-16T13:22:52;4.60;;;1.95;;
26474;SDS011;14161;52.270;10.334;2022-08-16T13:25:22;3.05;;;2.63;;
26474;SDS011;14161;52.270;10.334;2022-08-16T13:27:50;2.20;;;2.00;;
26474;SDS011;14161;52.270;10.334;2022-08-16T13:30:16;2.90;;;2.20;;
26474;SDS011;14161;52.270;10.334;2022-08-16T13:32:42;2.10;;;1.90;;
26474;SDS011;14161;52.270;10.334;2022-08-16T13:35:07;3.58;;;2.40;;
26474;SDS011;14161;52.270;10.334;2022-08-16T13:37:34;2.20;;;2.00;;
26474;SDS011;14161;52.270;10.334;2022-08-16T13:39:59;4.25;;;2.55;;
26474;SDS011;14161;52.270;10.334;2022-08-16T13:42:25;2.28;;;2.08;;
26474;SDS011;14161;52.270;10.334;2022-08-16T13:44:50;3.03;;;2.30;;
26474;SDS011;14161;52.270;10.334;2022-08-16T13:47:16;3.88;;;1.98;;
26474;SDS011;14161;52.270;10.334;2022-08-16T13:49:42;3.00;;;2.00;;
26474;SDS011;14161;52.270;10.334;2022-08-16T13:52:08;2.03;;;1.90;;
26474;SDS011;14161;52.270;10.334;2022-08-16T13:54:35;2.67;;;2.22;;
26474;SDS011;14161;52.270;10.334;2022-08-16T13:57:00;2.08;;;1.90;;
26474;SDS011;14161;52.270;10.334;2022-08-16T13:59:26;3.83;;;2.35;;
26474;SDS011;14161;52.270;10.334;2022-08-16T14:01:53;6.00;;;2.20;;
26474;SDS011;14161;52.270;10.334;2022-08-16T14:04:20;6.05;;;2.15;;
26474;SDS011;14161;52.270;10.334;2022-08-16T14:06:46;5.38;;;2.20;;
26474;SDS011;14161;52.270;10.334;2022-08-16T14:09:19;2.30;;;2.10;;
26474;SDS011;14161;52.270;10.334;2022-08-16T14:11:56;4.03;;;2.20;;
26474;SDS011;14161;52.270;10.334;2022-08-16T14:14:23;2.83;;;2.00;;
26474;SDS011;14161;52.270;10.334;2022-08-16T14:16:49;4.20;;;2.30;;
26474;SDS011;14161;52.270;10.334;2022-08-16T14:19:15;3.38;;;2.00;;
26474;SDS011;14161;52.270;10.334;2022-08-16T14:21:45;2.72;;;2.20;;
26474;SDS011;14161;52.270;10.334;2022-08-16T14:24:13;1.92;;;1.83;;
26474;SDS011;14161;52.270;10.334;2022-08-16T14:26:40;1.80;;;1.70;;
26474;SDS011;14161;52.270;10.334;2022-08-16T14:29:08;3.10;;;2.83;;
26474;SDS011;14161;52.270;10.334;2022-08-16T14:31:34;5.95;;;2.28;;
26474;SDS011;14161;52.270;10.334;2022-08-16T14:34:00;2.00;;;1.90;;
26474;SDS011;14161;52.270;10.334;2022-08-16T14:36:26;2.85;;;2.00;;
26474;SDS011;14161;52.270;10.334;2022-08-16T14:38:52;2.55;;;2.17;;
26474;SDS011;14161;52.270;10.334;2022-08-16T14:41:17;4.88;;;2.17;;
26474;SDS011;14161;52.270;10.334;2022-08-16T14:43:43;2.25;;;1.80;;
26474;SDS011;14161;52.270;10.334;2022-08-16T14:46:08;2.00;;;1.80;;
26474;SDS011;14161;52.270;10.334;2022-08-16T14:48:34;1.80;;;1.70;;
26474;SDS011;14161;52.270;10.334;2022-08-16T14:51:00;4.65;;;2.35;;
26474;SDS011;14161;52.270;10.334;2022-08-16T14:53:26;2.40;;;2.00;;
26474;SDS011;14161;52.270;10.334;2022-08-16T14:55:52;2.75;;;1.88;;
26474;SDS011;14161;52.270;10.334;2022-08-16T14:58:17;4.60;;;1.73;;
26474;SDS011;14161;52.270;10.334;2022-08-16T15:00:43;2.33;;;2.00;;
26474;SDS011;14161;52.270;10.334;2022-08-16T15:03:08;2.55;;;1.80;;
26474;SDS011;14161;52.270;10.334;2022-08-16T15:05:35;3.28;;;1.80;;
26474;SDS011;14161;52.270;10.334;2022-08-16T15:08:01;2.53;;;1.83;;
26474;SDS011;14161;52.270;10.334;2022-08-16T15:10:27;2.17;;;1.98;;
26474;SDS011;14161;52.270;10.334;2022-08-16T15:12:53;2.20;;;1.92;;
26474;SDS011;14161;52.270;10.334;2022-08-16T15:15:20;2.78;;;1.90;;
26474;SDS011;14161;52.270;10.334;2022-08-16T15:17:47;2.03;;;1.77;;
26474;SDS011;14161;52.270;10.334;2022-08-16T15:20:12;2.88;;;1.80;;
26474;SDS011;14161;52.270;10.334;2022-08-16T15:22:42;3.10;;;1.73;;
26474;SDS011;14161;52.270;10.334;2022-08-16T15:25:10;2.05;;;1.80;;
26474;SDS011;14161;52.270;10.334;2022-08-16T15:27:38;2.25;;;2.00;;
26474;SDS011;14161;52.270;10.334;2022-08-16T15:30:06;4.13;;;2.10;;
26474;SDS011;14161;52.270;10.334;2022-08-16T15:32:34;4.20;;;1.90;;
26474;SDS011;14161;52.270;10.334;2022-08-16T15:35:00;2.28;;;1.92;;
26474;SDS011;14161;52.270;10.334;2022-08-16T15:37:26;2.20;;;2.00;;
26474;SDS011;14161;52.270;10.334;2022-08-16T15:39:51;3.97;;;1.90;;
26474;SDS011;14161;52.270;10.334;2022-08-16T15:42:17;2.13;;;1.70;;
26474;SDS011;14161;52.270;10.334;2022-08-16T15:44:43;2.55;;;2.00;;
26474;SDS011;14161;52.270;10.334;2022-08-16T15:47:10;3.00;;;2.17;;
26474;SDS011;14161;52.270;10.334;2022-08-16T15:49:38;2.67;;;2.00;;
26474;SDS011;14161;52.270;10.334;2022-08-16T15:52:08;2.10;;;1.90;;
26474;SDS011;14161;52.270;10.334;2022-08-16T15:54:37;2.80;;;1.98;;
26474;SDS011;14161;52.270;10.334;2022-08-16T15:57:03;3.08;;;1.90;;
26474;SDS011;14161;52.270;10.334;2022-08-16T15:59:29;2.13;;;1.92;;
26474;SDS011;14161;52.270;10.334;2022-08-16T16:01:54;6.20;;;1.92;;
26474;SDS011;14161;52.270;10.334;2022-08-16T16:04:20;2.33;;;2.10;;
26474;SDS011;14161;52.270;10.334;2022-08-16T16:06:46;3.60;;;2.35;;
26474;SDS011;14161;52.270;10.334;2022-08-16T16:09:16;2.40;;;2.20;;
26474;SDS011;14161;52.270;10.334;2022-08-16T16:11:43;3.75;;;2.45;;
26474;SDS011;14161;52.270;10.334;2022-08-16T16:14:09;2.20;;;2.00;;
26474;SDS011;14161;52.270;10.334;2022-08-16T16:16:35;2.15;;;1.95;;
26474;SDS011;14161;52.270;10.334;2022-08-16T16:19:00;3.75;;;2.00;;
26474;SDS011;14161;52.270;10.334;2022-08-16T16:21:26;1.92;;;1.83;;
26474;SDS011;14161;52.270;10.334;2022-08-16T16:31:48;2.15;;;1.95;;
26474;SDS011;14161;52.270;10.334;2022-08-16T16:35:21;4.63;;;2.00;;
26474;SDS011;14161;52.270;10.334;2022-08-16T17:03:10;4.72;;;2.40;;
26474;SDS011;14161;52.270;10.334;2022-08-16T17:06:51;3.85;;;1.92;;
26474;SDS011;14161;52.270;10.334;2022-08-16T17:10:07;4.25;;;2.40;;
26474;SDS011;14161;52.270;10.334;2022-08-16T17:12:33;2.65;;;2.45;;
26474;SDS011;14161;52.270;10.334;2022-08-16T17:14:59;2.22;;;2.03;;
26474;SDS011;14161;52.270;10.334;2022-08-16T17:17:25;3.63;;;2.60;;
26474;SDS011;14161;52.270;10.334;2022-08-16T17:19:50;3.88;;;2.13;;
26474;SDS011;14161;52.270;10.334;2022-08-16T17:22:17;5.30;;;2.25;;
26474;SDS011;14161;52.270;10.334;2022-08-16T17:24:45;2.65;;;2.03;;
26474;SDS011;14161;52.270;10.334;2022-08-16T17:27:12;2.38;;;2.17;;
26474;SDS011;14161;52.270;10.334;2022-08-16T17:29:39;2.50;;;2.13;;
26474;SDS011;14161;52.270;10.334;2022-08-16T17:32:07;3.03;;;2.15;;
26474;SDS011;14161;52.270;10.334;2022-08-16T17:34:36;4.28;;;2.20;;
26474;SDS011;14161;52.270;10.334;2022-08-16T17:37:05;5.03;;;2.33;;
26474;SDS011;14161;52.270;10.334;2022-08-16T17:39:31;2.00;;;1.90;;
26474;SDS011;14161;52.270;10.334;2022-08-16T17:41:57;2.20;;;1.92;;
26474;SDS011;14161;52.270;10.334;2022-08-16T17:44:26;2.25;;;2.00;;
26474;SDS011;14161;52.270;10.334;2022-08-16T17:46:52;3.28;;;2.30;;
26474;SDS011;14161;52.270;10.334;2022-08-16T17:49:18;2.08;;;1.85;;
26474;SDS011;14161;52.270;10.334;2022-08-16T17:51:44;2.95;;;2.42;;
26474;SDS011;14161;52.270;10.334;2022-08-16T17:54:12;2.42;;;2.08;;
26474;SDS011;14161;52.270;10.334;2022-08-16T17:56:38;2.42;;;2.05;;
26474;SDS011;14161;52.270;10.334;2022-08-16T17:59:04;3.20;;;2.40;;
26474;SDS011;14161;52.270;10.334;2022-08-16T18:01:29;2.70;;;2.03;;
26474;SDS011;14161;52.270;10.334;2022-08-16T18:03:57;2.45;;;2.13;;